createdAt,value
2023-01-05T00:01:24.673Z,4.30
2023-01-05T00:03:51.383Z,4.30
2023-01-05T00:06:18.632Z,4.30
2023-01-05T00:08:46.338Z,4.20
2023-01-05T00:11:35.025Z,4.20
2023-01-05T00:14:21.182Z,4.20
2023-01-05T00:17:06.746Z,4.20
2023-01-05T00:19:52.637Z,4.20
2023-01-05T00:22:38.477Z,4.20
2023-01-05T00:25:17.629Z,4.20
2023-01-05T00:27:46.370Z,4.20
2023-01-05T00:30:15.627Z,4.20
2023-01-05T00:32:43.315Z,4.20
2023-01-05T00:35:11.105Z,4.20
2023-01-05T00:37:38.560Z,4.20
2023-01-05T00:40:07.227Z,4.20
2023-01-05T00:42:33.983Z,4.10
2023-01-05T00:45:00.665Z,4.10
2023-01-05T00:47:27.575Z,4.10
2023-01-05T00:49:54.271Z,4.10
2023-01-05T00:52:21.025Z,4.10
2023-01-05T00:54:47.660Z,4.10
2023-01-05T00:57:14.875Z,4.10
2023-01-05T00:59:41.683Z,4.10
2023-01-05T01:02:08.864Z,4.00
2023-01-05T01:04:36.190Z,4.00
2023-01-05T01:07:03.777Z,4.00
2023-01-05T01:09:30.694Z,4.00
2023-01-05T01:11:57.522Z,4.00
2023-01-05T01:14:24.349Z,4.00
2023-01-05T01:16:51.111Z,4.00
2023-01-05T01:19:21.212Z,3.90
2023-01-05T01:21:48.300Z,3.90
2023-01-05T01:24:20.812Z,3.90
2023-01-05T01:26:47.817Z,3.80
2023-01-05T01:29:17.415Z,3.80
2023-01-05T01:31:45.306Z,3.80
2023-01-05T01:34:11.955Z,3.70
2023-01-05T01:36:38.844Z,3.60
2023-01-05T01:39:05.871Z,3.60
2023-01-05T01:41:32.769Z,3.60
2023-01-05T01:43:59.467Z,3.60
2023-01-05T01:46:27.151Z,3.50
2023-01-05T01:49:00.928Z,3.50
2023-01-05T01:51:37.426Z,3.50
2023-01-05T01:54:08.504Z,3.50
2023-01-05T01:56:56.285Z,3.40
2023-01-05T01:59:24.942Z,3.40
2023-01-05T02:01:54.805Z,3.40
2023-01-05T02:04:22.258Z,3.30
2023-01-05T02:06:49.901Z,3.30
2023-01-05T02:09:16.887Z,3.30
2023-01-05T02:12:18.417Z,3.30
2023-01-05T02:15:00.489Z,3.30
2023-01-05T02:17:51.346Z,3.30
2023-01-05T02:20:33.017Z,3.30
2023-01-05T02:23:14.705Z,3.30
2023-01-05T02:26:06.046Z,3.30
2023-01-05T02:28:59.644Z,3.30
2023-01-05T02:31:37.520Z,3.30
2023-01-05T02:34:09.619Z,3.30
2023-01-05T02:37:10.999Z,3.30
2023-01-05T02:39:53.509Z,3.20
2023-01-05T02:42:24.158Z,3.20
2023-01-05T02:44:51.156Z,3.20
2023-01-05T02:47:29.942Z,3.20
2023-01-05T02:50:23.104Z,3.20
2023-01-05T02:53:21.570Z,3.20
2023-01-05T02:56:11.511Z,3.20
2023-01-05T02:59:01.866Z,3.20
2023-01-05T03:01:34.441Z,3.20
2023-01-05T03:04:14.241Z,3.20
2023-01-05T03:06:56.693Z,3.20
2023-01-05T03:09:28.391Z,3.20
2023-01-05T03:12:24.649Z,3.20
2023-01-05T03:15:12.259Z,3.20
2023-01-05T03:17:45.690Z,3.20
2023-01-05T03:20:15.321Z,3.20
2023-01-05T03:23:02.928Z,3.20
2023-01-05T03:25:48.519Z,3.20
2023-01-05T03:28:42.665Z,3.20
2023-01-05T03:31:52.057Z,3.30
2023-01-05T03:34:43.068Z,3.20
2023-01-05T03:37:15.045Z,3.20
2023-01-05T03:39:45.055Z,3.20
2023-01-05T03:42:13.777Z,3.20
2023-01-05T03:44:43.638Z,3.20
2023-01-05T03:47:10.433Z,3.20
2023-01-05T03:49:37.775Z,3.20
2023-01-05T03:52:04.861Z,3.20
2023-01-05T03:54:31.534Z,3.20
2023-01-05T03:56:58.202Z,3.20
2023-01-05T03:59:24.839Z,3.20
2023-01-05T04:01:51.725Z,3.10
2023-01-05T04:04:18.589Z,3.10
2023-01-05T04:06:45.258Z,3.10
2023-01-05T04:09:11.921Z,3.10
2023-01-05T04:11:38.598Z,3.10
2023-01-05T04:14:05.296Z,3.10
2023-01-05T04:16:31.976Z,3.10
2023-01-05T04:18:58.631Z,3.10
2023-01-05T04:21:25.280Z,3.10
2023-01-05T04:23:51.936Z,3.10
2023-01-05T04:26:18.639Z,3.10
2023-01-05T04:28:45.447Z,3.10
2023-01-05T04:31:12.164Z,3.10
2023-01-05T04:33:40.111Z,3.10
2023-01-05T04:36:08.000Z,3.10
2023-01-05T04:38:34.727Z,3.00
2023-01-05T04:41:01.407Z,3.00
2023-01-05T04:43:28.113Z,3.00
2023-01-05T04:45:54.791Z,3.00
2023-01-05T04:48:21.477Z,3.00
2023-01-05T04:50:55.613Z,3.00
2023-01-05T04:53:23.527Z,3.00
2023-01-05T04:55:51.677Z,3.00
2023-01-05T04:58:20.437Z,3.00
2023-01-05T05:00:48.615Z,3.00
2023-01-05T05:03:15.279Z,3.00
2023-01-05T05:05:41.964Z,3.00
2023-01-05T05:08:08.852Z,3.00
2023-01-05T05:10:35.625Z,3.00
2023-01-05T05:13:02.371Z,4.60
2023-01-05T05:15:29.074Z,2.90
2023-01-05T05:17:55.727Z,2.90
2023-01-05T05:20:22.382Z,2.90
2023-01-05T05:22:49.089Z,2.90
2023-01-05T05:25:15.973Z,2.90
2023-01-05T05:27:42.633Z,2.80
2023-01-05T05:30:10.114Z,2.80
2023-01-05T05:32:42.376Z,2.80
2023-01-05T05:35:10.772Z,2.80
2023-01-05T05:37:37.443Z,2.80
2023-01-05T05:40:04.479Z,2.70
2023-01-05T05:42:31.167Z,2.70
2023-01-05T05:44:57.832Z,2.70
2023-01-05T05:47:24.473Z,2.70
2023-01-05T05:49:51.140Z,2.70
2023-01-05T05:52:17.970Z,2.70
2023-01-05T05:54:44.783Z,2.60
2023-01-05T05:57:11.488Z,2.60
2023-01-05T05:59:38.224Z,2.60
2023-01-05T06:02:05.051Z,2.50
2023-01-05T06:04:31.857Z,2.60
2023-01-05T06:06:58.552Z,2.60
2023-01-05T06:09:25.436Z,2.60
2023-01-05T06:11:52.179Z,2.60
2023-01-05T06:14:18.964Z,2.60
2023-01-05T06:16:45.923Z,2.60
2023-01-05T06:19:12.818Z,2.60
2023-01-05T06:21:39.505Z,2.60
2023-01-05T06:24:06.515Z,2.60
2023-01-05T06:26:33.318Z,2.60
2023-01-05T06:28:59.952Z,2.60
2023-01-05T06:31:26.624Z,2.60
2023-01-05T06:33:53.538Z,2.50
2023-01-05T06:36:20.325Z,2.50
2023-01-05T06:38:47.132Z,2.60
2023-01-05T06:41:13.820Z,2.50
2023-01-05T06:43:40.668Z,2.50
2023-01-05T06:46:07.364Z,2.50
2023-01-05T06:48:34.375Z,2.50
2023-01-05T06:51:01.027Z,2.50
2023-01-05T06:53:27.842Z,2.40
2023-01-05T06:55:54.561Z,2.40
2023-01-05T06:58:21.218Z,2.40
2023-01-05T07:00:47.963Z,2.40
2023-01-05T07:03:14.741Z,2.30
2023-01-05T07:05:41.998Z,2.40
2023-01-05T07:08:08.837Z,2.30
2023-01-05T07:10:35.573Z,2.40
2023-01-05T07:13:02.328Z,2.40
2023-01-05T07:15:29.954Z,2.30
2023-01-05T07:17:56.635Z,2.30
2023-01-05T07:20:23.328Z,2.40
2023-01-05T07:22:50.039Z,2.40
2023-01-05T07:25:16.724Z,2.30
2023-01-05T07:27:43.385Z,2.30
2023-01-05T07:30:10.747Z,2.30
2023-01-05T07:32:37.408Z,2.20
2023-01-05T07:35:04.394Z,2.20
2023-01-05T07:37:31.085Z,2.20
2023-01-05T07:39:57.833Z,2.20
2023-01-05T07:42:26.016Z,2.20
2023-01-05T07:44:52.673Z,2.20
2023-01-05T07:47:19.446Z,2.20
2023-01-05T07:49:46.430Z,2.20
2023-01-05T07:52:13.084Z,2.20
2023-01-05T07:54:39.715Z,2.10
2023-01-05T07:57:06.571Z,2.10
2023-01-05T07:59:33.218Z,2.10
2023-01-05T08:01:59.942Z,2.10
2023-01-05T08:04:26.829Z,2.10
2023-01-05T08:06:53.559Z,2.10
2023-01-05T08:09:38.986Z,2.10
2023-01-05T08:12:05.916Z,2.20
2023-01-05T08:14:33.003Z,2.20
2023-01-05T08:16:59.707Z,2.20
2023-01-05T08:19:26.365Z,2.10
2023-01-05T08:21:53.019Z,2.10
2023-01-05T08:24:19.859Z,2.10
2023-01-05T08:26:49.190Z,2.10
2023-01-05T08:29:15.902Z,2.10
2023-01-05T08:31:42.562Z,2.10
2023-01-05T08:34:09.293Z,2.10
2023-01-05T08:36:35.987Z,2.10
2023-01-05T08:39:03.195Z,2.10
2023-01-05T08:41:38.113Z,2.10
2023-01-05T08:44:10.566Z,2.00
2023-01-05T08:46:37.844Z,2.00
2023-01-05T08:49:06.920Z,2.00
2023-01-05T08:51:34.507Z,2.00
2023-01-05T08:54:01.305Z,2.00
2023-01-05T08:56:31.703Z,2.00
2023-01-05T08:59:01.507Z,2.00
2023-01-05T09:01:28.310Z,2.00
2023-01-05T09:03:55.033Z,2.00
2023-01-05T09:06:21.839Z,2.00
2023-01-05T09:08:48.733Z,2.00
2023-01-05T09:11:21.531Z,2.00
2023-01-05T09:13:59.246Z,2.00
2023-01-05T09:17:04.720Z,2.00
2023-01-05T09:19:15.900Z,2.10
2023-01-05T09:21:42.701Z,2.00
2023-01-05T09:24:14.645Z,2.10
2023-01-05T09:26:42.468Z,2.00
2023-01-05T09:29:09.993Z,2.00
2023-01-05T09:31:36.797Z,1.90
2023-01-05T09:34:04.100Z,1.90
2023-01-05T09:36:32.227Z,1.90
2023-01-05T09:38:58.958Z,1.90
2023-01-05T09:41:27.712Z,1.90
2023-01-05T09:44:05.488Z,1.90
2023-01-05T09:46:39.982Z,1.90
2023-01-05T09:49:11.753Z,1.90
2023-01-05T09:51:38.488Z,1.90
2023-01-05T09:54:05.371Z,1.90
2023-01-05T09:59:26.264Z,1.90
2023-01-05T10:01:55.970Z,1.90
2023-01-05T10:04:30.350Z,1.90
2023-01-05T10:07:03.451Z,2.00
2023-01-05T10:09:38.282Z,2.10
2023-01-05T10:12:46.744Z,2.10
2023-01-05T10:15:21.574Z,2.10
2023-01-05T10:17:48.474Z,2.10
2023-01-05T10:20:25.584Z,2.10
2023-01-05T10:22:52.427Z,2.10
2023-01-05T10:25:39.962Z,2.10
2023-01-05T10:28:34.227Z,2.10
2023-01-05T10:31:16.003Z,2.10
2023-01-05T10:33:56.790Z,2.10
2023-01-05T10:37:06.817Z,2.10
2023-01-05T10:39:40.595Z,2.10
2023-01-05T10:42:22.272Z,2.10
2023-01-05T10:44:57.620Z,2.10
2023-01-05T10:47:27.399Z,2.10
2023-01-05T10:49:54.199Z,2.20
2023-01-05T10:52:22.495Z,2.20
2023-01-05T10:55:00.359Z,2.20
2023-01-05T10:57:35.283Z,2.20
2023-01-05T11:00:08.332Z,2.20
2023-01-05T11:02:38.138Z,2.20
2023-01-05T11:05:23.229Z,2.20
2023-01-05T11:07:52.953Z,2.10
2023-01-05T11:10:50.037Z,2.20
2023-01-05T11:13:16.674Z,2.20
2023-01-05T11:15:51.790Z,2.20
2023-01-05T11:18:32.915Z,2.10
2023-01-05T11:21:11.712Z,2.10
2023-01-05T11:23:44.715Z,2.10
2023-01-05T11:26:17.778Z,2.10
2023-01-05T11:29:02.852Z,2.10
2023-01-05T11:31:36.509Z,2.20
2023-01-05T11:34:49.527Z,2.20
2023-01-05T11:37:30.267Z,2.30
2023-01-05T11:40:02.164Z,2.30
2023-01-05T11:42:36.336Z,2.30
2023-01-05T11:45:21.488Z,2.30
2023-01-05T11:47:55.331Z,2.30
2023-01-05T11:50:28.637Z,2.30
2023-01-05T11:52:57.831Z,2.30
2023-01-05T11:55:30.471Z,2.30
2023-01-05T11:58:20.136Z,2.20
2023-01-05T12:01:05.703Z,2.20
2023-01-05T12:04:04.188Z,2.20
2023-01-05T12:06:46.206Z,2.20
2023-01-05T12:09:15.617Z,2.30
2023-01-05T12:12:08.014Z,2.30
2023-01-05T12:14:34.763Z,2.30
2023-01-05T12:17:13.176Z,2.40
2023-01-05T12:19:39.840Z,2.30
2023-01-05T12:22:34.221Z,2.30
2023-01-05T12:25:20.127Z,2.30
2023-01-05T12:28:05.403Z,2.30
2023-01-05T12:34:13.627Z,4.10
2023-01-05T12:36:52.825Z,2.20
2023-01-05T12:39:38.360Z,2.20
2023-01-05T12:42:28.059Z,2.20
2023-01-05T12:45:09.403Z,2.20
2023-01-05T12:48:03.491Z,2.20
2023-01-05T12:50:44.967Z,2.20
2023-01-05T12:53:23.793Z,2.10
2023-01-05T12:55:55.035Z,2.10
2023-01-05T12:58:29.759Z,2.10
2023-01-05T13:00:57.824Z,2.10
2023-01-05T13:03:45.883Z,2.10
2023-01-05T13:06:18.132Z,2.10
2023-01-05T13:08:50.402Z,2.10
2023-01-05T13:11:30.947Z,2.10
2023-01-05T13:14:24.332Z,2.10
2023-01-05T13:16:58.751Z,2.10
2023-01-05T13:19:49.167Z,2.10
2023-01-05T13:22:23.825Z,2.00
2023-01-05T13:24:52.945Z,2.00
2023-01-05T13:27:19.761Z,2.00
2023-01-05T13:29:53.107Z,1.90
2023-01-05T13:32:45.753Z,1.90
2023-01-05T13:35:21.636Z,1.90
2023-01-05T13:38:02.751Z,1.90
2023-01-05T13:40:38.408Z,1.90
2023-01-05T13:43:31.669Z,1.90
2023-01-05T13:46:04.485Z,1.90
2023-01-05T13:49:02.882Z,2.00
2023-01-05T13:51:45.176Z,2.00
2023-01-05T13:54:59.876Z,2.00
2023-01-05T13:57:30.519Z,2.00
2023-01-05T14:00:11.025Z,2.00
2023-01-05T14:02:43.478Z,2.00
2023-01-05T14:05:28.982Z,2.00
2023-01-05T14:07:57.321Z,2.00
2023-01-05T14:10:27.670Z,2.00
2023-01-05T14:12:55.361Z,2.00
2023-01-05T14:15:43.176Z,2.00
2023-01-05T14:18:33.610Z,2.00
2023-01-05T14:21:10.242Z,2.00
2023-01-05T14:23:36.927Z,2.00
2023-01-05T14:26:07.817Z,2.00
2023-01-05T14:28:34.570Z,2.00
2023-01-05T14:31:21.615Z,1.90
2023-01-05T14:33:57.363Z,1.90
2023-01-05T14:36:35.987Z,1.80
2023-01-05T14:39:25.751Z,1.90
2023-01-05T14:42:03.606Z,1.90
2023-01-05T14:44:32.052Z,1.90
2023-01-05T14:47:00.215Z,1.90
2023-01-05T14:49:55.378Z,1.90
2023-01-05T14:52:58.980Z,1.90
2023-01-05T14:55:39.354Z,2.00
2023-01-05T14:58:15.740Z,2.00
2023-01-05T15:00:57.766Z,2.00
2023-01-05T15:03:33.545Z,2.00
2023-01-05T15:06:35.046Z,2.00
2023-01-05T15:09:41.517Z,1.80
2023-01-05T15:12:31.318Z,2.00
2023-01-05T15:15:09.389Z,1.90
2023-01-05T15:17:55.293Z,1.90
2023-01-05T15:20:30.912Z,1.90
2023-01-05T15:23:19.500Z,1.90
2023-01-05T15:26:07.966Z,2.00
2023-01-05T15:29:05.306Z,2.00
2023-01-05T15:31:44.648Z,2.00
2023-01-05T15:34:50.520Z,2.00
2023-01-05T15:37:37.084Z,2.00
2023-01-05T15:40:07.801Z,2.00
2023-01-05T15:42:45.807Z,2.00
2023-01-05T15:45:18.526Z,2.00
2023-01-05T15:47:46.968Z,2.00
2023-01-05T15:50:20.580Z,2.00
2023-01-05T15:53:00.059Z,1.90
2023-01-05T15:55:28.801Z,2.00
2023-01-05T15:58:13.536Z,2.00
2023-01-05T16:00:40.322Z,1.90
2023-01-05T16:03:28.569Z,2.00
2023-01-05T16:06:02.593Z,2.00
2023-01-05T16:08:33.545Z,2.00
2023-01-05T16:11:03.504Z,2.00
2023-01-05T16:13:42.648Z,2.00
2023-01-05T16:16:50.482Z,2.00
2023-01-05T16:19:24.579Z,1.90
2023-01-05T16:22:11.335Z,1.90
2023-01-05T16:24:44.343Z,2.00
2023-01-05T16:27:13.735Z,2.00
2023-01-05T16:29:47.232Z,2.00
2023-01-05T16:32:31.906Z,2.10
2023-01-05T16:35:20.583Z,2.00
2023-01-05T16:38:03.677Z,2.00
2023-01-05T16:40:30.827Z,1.90
2023-01-05T16:42:57.521Z,1.90
2023-01-05T16:45:31.808Z,2.00
2023-01-05T16:47:59.088Z,2.00
2023-01-05T16:50:37.751Z,1.90
2023-01-05T16:53:11.784Z,1.90
2023-01-05T16:55:39.049Z,1.90
2023-01-05T16:58:33.081Z,1.80
2023-01-05T17:01:35.802Z,1.80
2023-01-05T17:04:16.628Z,1.70
2023-01-05T17:06:49.943Z,1.70
2023-01-05T17:09:29.369Z,1.70
2023-01-05T17:11:56.541Z,1.70
2023-01-05T17:14:24.441Z,1.80
2023-01-05T17:16:51.192Z,1.80
2023-01-05T17:19:21.372Z,1.80
2023-01-05T17:21:57.642Z,1.80
2023-01-05T17:24:26.871Z,1.90
2023-01-05T17:26:53.555Z,1.90
2023-01-05T17:29:26.550Z,1.90
2023-01-05T17:31:53.590Z,1.80
2023-01-05T17:34:20.775Z,1.80
2023-01-05T17:36:49.813Z,1.80
2023-01-05T17:39:18.243Z,1.80
2023-01-05T17:41:45.354Z,1.90
2023-01-05T17:44:12.297Z,1.80
2023-01-05T17:46:42.867Z,1.80
2023-01-05T17:49:19.856Z,1.90
2023-01-05T17:51:47.130Z,1.90
2023-01-05T17:54:14.036Z,2.00
2023-01-05T17:56:40.719Z,2.00
2023-01-05T17:59:07.552Z,2.00
2023-01-05T18:01:34.402Z,1.90
2023-01-05T18:04:01.638Z,1.90
2023-01-05T18:06:28.629Z,1.90
2023-01-05T18:08:55.409Z,1.90
2023-01-05T18:11:22.232Z,1.90
2023-01-05T18:13:49.039Z,1.80
2023-01-05T18:16:15.959Z,1.80
2023-01-05T18:18:42.882Z,1.80
2023-01-05T18:21:09.593Z,1.80
2023-01-05T18:23:36.388Z,1.80
2023-01-05T18:26:08.121Z,1.90
2023-01-05T18:28:35.495Z,1.90
2023-01-05T18:31:09.793Z,1.80
2023-01-05T18:33:36.451Z,1.90
2023-01-05T18:36:08.422Z,1.80
2023-01-05T18:38:35.373Z,1.80
2023-01-05T18:41:02.110Z,1.80
2023-01-05T18:43:28.846Z,1.80
2023-01-05T18:45:56.389Z,1.80
2023-01-05T18:48:23.517Z,1.80
2023-01-05T18:50:52.178Z,1.80
2023-01-05T18:53:20.689Z,1.80
2023-01-05T18:55:47.982Z,1.70
2023-01-05T18:58:15.633Z,1.70
2023-01-05T19:00:44.674Z,1.70
2023-01-05T19:03:11.505Z,1.70
2023-01-05T19:05:40.882Z,1.70
2023-01-05T19:08:09.509Z,1.70
2023-01-05T19:10:37.045Z,1.70
2023-01-05T19:13:04.785Z,1.70
2023-01-05T19:15:36.539Z,1.80
2023-01-05T19:18:03.712Z,1.80
2023-01-05T19:20:31.697Z,1.80
2023-01-05T19:23:00.351Z,1.90
2023-01-05T19:25:27.609Z,1.90
2023-01-05T19:27:54.515Z,1.90
2023-01-05T19:30:23.517Z,2.00
2023-01-05T19:32:51.284Z,2.00
2023-01-05T19:35:18.683Z,2.00
2023-01-05T19:37:45.400Z,1.90
2023-01-05T19:40:12.328Z,1.90
2023-01-05T19:42:39.137Z,1.80
2023-01-05T19:45:06.410Z,1.90
2023-01-05T19:47:33.170Z,1.90
2023-01-05T19:49:59.897Z,1.90
2023-01-05T19:52:29.653Z,2.00
2023-01-05T19:54:56.604Z,1.90
2023-01-05T19:57:23.337Z,1.80
2023-01-05T19:59:51.316Z,1.80
2023-01-05T20:02:18.369Z,1.70
2023-01-05T20:04:46.670Z,1.70
2023-01-05T20:07:13.352Z,1.60
2023-01-05T20:09:40.205Z,1.50
2023-01-05T20:12:14.218Z,1.50
2023-01-05T20:14:42.251Z,1.50
2023-01-05T20:17:10.508Z,1.40
2023-01-05T20:19:38.668Z,1.40
2023-01-05T20:22:07.589Z,1.40
2023-01-05T20:24:36.730Z,1.40
2023-01-05T20:27:07.559Z,1.30
2023-01-05T20:29:35.545Z,1.30
2023-01-05T20:32:18.539Z,1.30
2023-01-05T20:34:49.207Z,1.30
2023-01-05T20:37:15.922Z,1.30
2023-01-05T20:39:42.873Z,1.20
2023-01-05T20:42:10.999Z,1.40
2023-01-05T20:44:40.508Z,1.40
2023-01-05T20:47:07.508Z,1.40
2023-01-05T20:49:35.938Z,1.40
2023-01-05T20:52:04.158Z,1.40
2023-01-05T20:54:30.903Z,1.40
2023-01-05T20:56:57.584Z,1.40
2023-01-05T20:59:27.707Z,1.40
2023-01-05T21:01:54.812Z,1.40
2023-01-05T21:04:22.040Z,1.30
2023-01-05T21:06:51.398Z,1.30
2023-01-05T21:09:18.475Z,1.30
2023-01-05T21:11:45.735Z,1.30
2023-01-05T21:14:14.273Z,1.30
2023-01-05T21:16:44.291Z,1.20
2023-01-05T21:19:17.652Z,1.20
2023-01-05T21:21:46.040Z,1.20
2023-01-05T21:24:14.247Z,1.20
2023-01-05T21:26:41.140Z,1.20
2023-01-05T21:29:10.202Z,1.20
2023-01-05T21:31:38.011Z,1.30
2023-01-05T21:34:05.312Z,1.30
2023-01-05T21:36:33.204Z,1.30
2023-01-05T21:39:04.431Z,1.30
2023-01-05T21:41:51.232Z,1.30
2023-01-05T21:44:19.989Z,1.30
2023-01-05T21:46:48.074Z,1.30
2023-01-05T21:49:15.391Z,1.20
2023-01-05T21:52:01.165Z,1.20
2023-01-05T21:54:46.697Z,1.20
2023-01-05T21:57:13.469Z,1.20
2023-01-05T21:59:40.457Z,1.30
2023-01-05T22:02:07.454Z,1.30
2023-01-05T22:04:34.324Z,1.30
2023-01-05T22:07:01.305Z,1.20
2023-01-05T22:09:27.941Z,1.20
2023-01-05T22:11:54.618Z,2.50
2023-01-05T22:14:21.353Z,1.20
2023-01-05T22:16:48.016Z,1.20
2023-01-05T22:19:14.691Z,1.20
2023-01-05T22:21:41.589Z,1.20
2023-01-05T22:24:09.494Z,1.20
2023-01-05T22:26:36.210Z,1.20
2023-01-05T22:29:03.233Z,1.20
2023-01-05T22:31:31.810Z,1.20
2023-01-05T22:34:00.678Z,1.20
2023-01-05T22:36:29.387Z,1.20
2023-01-05T22:38:56.957Z,1.20
2023-01-05T22:41:25.940Z,1.20
2023-01-05T22:43:52.936Z,1.20
2023-01-05T22:46:22.345Z,1.20
2023-01-05T22:48:51.518Z,1.20
2023-01-05T22:51:24.679Z,1.20
2023-01-05T22:53:52.209Z,1.20
2023-01-05T22:56:20.934Z,1.20
2023-01-05T22:58:48.097Z,1.20
2023-01-05T23:01:25.215Z,1.20
2023-01-05T23:03:53.448Z,1.10
2023-01-05T23:06:21.071Z,1.10
2023-01-05T23:08:49.199Z,1.10
2023-01-05T23:11:21.511Z,1.10
2023-01-05T23:13:49.124Z,1.10
2023-01-05T23:16:16.050Z,1.10
2023-01-05T23:18:44.159Z,1.10
2023-01-05T23:21:12.689Z,1.10
2023-01-05T23:23:39.760Z,1.10
2023-01-05T23:26:08.282Z,1.10
2023-01-05T23:28:35.465Z,1.10
2023-01-05T23:31:02.764Z,1.10
2023-01-05T23:33:32.303Z,1.10
2023-01-05T23:35:59.007Z,1.10
2023-01-05T23:38:27.032Z,1.00
2023-01-05T23:40:55.249Z,1.00
2023-01-05T23:43:24.837Z,1.00
2023-01-05T23:45:58.500Z,1.00
2023-01-05T23:48:26.024Z,1.00
2023-01-05T23:50:54.129Z,1.00
2023-01-05T23:53:20.903Z,1.00
2023-01-05T23:55:47.582Z,1.00
2023-01-05T23:58:14.383Z,1.00
